sensor_id;sensor_type;location;lat;lon;timestamp;P1;durP1;ratioP1;P2;durP2;ratioP2
6251;SDS011;3159;52.414;9.784;2023-02-15T00:02:45;20.50;;;13.57;;
6251;SDS011;3159;52.414;9.784;2023-02-15T00:05:13;18.87;;;14.43;;
6251;SDS011;3159;52.414;9.784;2023-02-15T00:07:40;20.77;;;14.17;;
6251;SDS011;3159;52.414;9.784;2023-02-15T00:10:07;20.63;;;14.37;;
6251;SDS011;3159;52.414;9.784;2023-02-15T00:12:34;21.10;;;13.23;;
6251;SDS011;3159;52.414;9.784;2023-02-15T00:15:01;19.13;;;14.30;;
6251;SDS011;3159;52.414;9.784;2023-02-15T00:17:28;17.93;;;12.97;;
6251;SDS011;3159;52.414;9.784;2023-02-15T00:19:55;18.70;;;13.13;;
6251;SDS011;3159;52.414;9.784;2023-02-15T00:22:23;19.53;;;12.27;;
6251;SDS011;3159;52.414;9.784;2023-02-15T00:24:51;19.17;;;12.90;;
6251;SDS011;3159;52.414;9.784;2023-02-15T00:27:17;17.47;;;12.67;;
6251;SDS011;3159;52.414;9.784;2023-02-15T00:29:46;16.03;;;12.23;;
6251;SDS011;3159;52.414;9.784;2023-02-15T00:32:12;17.03;;;12.33;;
6251;SDS011;3159;52.414;9.784;2023-02-15T00:34:39;18.77;;;12.40;;
6251;SDS011;3159;52.414;9.784;2023-02-15T00:37:06;17.50;;;12.70;;
6251;SDS011;3159;52.414;9.784;2023-02-15T00:39:34;17.70;;;12.87;;
6251;SDS011;3159;52.414;9.784;2023-02-15T00:42:01;19.93;;;12.53;;
6251;SDS011;3159;52.414;9.784;2023-02-15T00:44:28;19.47;;;13.27;;
6251;SDS011;3159;52.414;9.784;2023-02-15T00:46:54;16.80;;;12.27;;
6251;SDS011;3159;52.414;9.784;2023-02-15T00:49:21;20.17;;;13.13;;
6251;SDS011;3159;52.414;9.784;2023-02-15T00:51:48;16.80;;;12.47;;
6251;SDS011;3159;52.414;9.784;2023-02-15T00:54:15;18.00;;;11.97;;
6251;SDS011;3159;52.414;9.784;2023-02-15T00:56:43;15.80;;;11.73;;
6251;SDS011;3159;52.414;9.784;2023-02-15T00:59:10;15.67;;;11.83;;
6251;SDS011;3159;52.414;9.784;2023-02-15T01:01:36;15.83;;;11.30;;
6251;SDS011;3159;52.414;9.784;2023-02-15T01:04:03;14.43;;;11.17;;
6251;SDS011;3159;52.414;9.784;2023-02-15T01:06:30;15.27;;;11.63;;
6251;SDS011;3159;52.414;9.784;2023-02-15T01:08:57;15.73;;;12.17;;
6251;SDS011;3159;52.414;9.784;2023-02-15T01:11:24;15.53;;;12.13;;
6251;SDS011;3159;52.414;9.784;2023-02-15T01:13:53;14.57;;;10.93;;
6251;SDS011;3159;52.414;9.784;2023-02-15T01:16:21;14.03;;;10.73;;
6251;SDS011;3159;52.414;9.784;2023-02-15T01:18:48;16.00;;;10.40;;
6251;SDS011;3159;52.414;9.784;2023-02-15T01:21:16;17.03;;;11.93;;
6251;SDS011;3159;52.414;9.784;2023-02-15T01:23:44;14.83;;;11.57;;
6251;SDS011;3159;52.414;9.784;2023-02-15T01:26:12;15.73;;;11.63;;
6251;SDS011;3159;52.414;9.784;2023-02-15T01:28:39;17.10;;;11.70;;
6251;SDS011;3159;52.414;9.784;2023-02-15T01:31:08;17.37;;;12.33;;
6251;SDS011;3159;52.414;9.784;2023-02-15T01:33:36;16.27;;;11.73;;
6251;SDS011;3159;52.414;9.784;2023-02-15T01:36:04;15.23;;;11.20;;
6251;SDS011;3159;52.414;9.784;2023-02-15T01:38:31;14.80;;;11.30;;
6251;SDS011;3159;52.414;9.784;2023-02-15T01:40:59;16.17;;;11.63;;
6251;SDS011;3159;52.414;9.784;2023-02-15T01:43:40;15.20;;;11.67;;
6251;SDS011;3159;52.414;9.784;2023-02-15T01:46:08;15.77;;;10.93;;
6251;SDS011;3159;52.414;9.784;2023-02-15T01:48:37;14.60;;;10.83;;
6251;SDS011;3159;52.414;9.784;2023-02-15T01:51:10;15.70;;;10.97;;
6251;SDS011;3159;52.414;9.784;2023-02-15T01:53:40;16.83;;;10.93;;
6251;SDS011;3159;52.414;9.784;2023-02-15T01:56:09;16.27;;;11.33;;
6251;SDS011;3159;52.414;9.784;2023-02-15T01:58:40;15.77;;;11.33;;
6251;SDS011;3159;52.414;9.784;2023-02-15T02:01:09;15.33;;;10.40;;
6251;SDS011;3159;52.414;9.784;2023-02-15T02:03:38;13.67;;;10.70;;
6251;SDS011;3159;52.414;9.784;2023-02-15T02:06:12;14.93;;;10.53;;
6251;SDS011;3159;52.414;9.784;2023-02-15T02:08:39;14.03;;;10.73;;
6251;SDS011;3159;52.414;9.784;2023-02-15T02:11:09;14.03;;;10.67;;
6251;SDS011;3159;52.414;9.784;2023-02-15T02:13:37;15.83;;;10.90;;
6251;SDS011;3159;52.414;9.784;2023-02-15T02:16:06;14.27;;;10.70;;
6251;SDS011;3159;52.414;9.784;2023-02-15T02:18:41;15.60;;;10.60;;
6251;SDS011;3159;52.414;9.784;2023-02-15T02:21:23;14.67;;;10.50;;
6251;SDS011;3159;52.414;9.784;2023-02-15T02:24:40;17.00;;;10.83;;
6251;SDS011;3159;52.414;9.784;2023-02-15T02:27:28;15.30;;;11.30;;
6251;SDS011;3159;52.414;9.784;2023-02-15T02:33:09;14.13;;;10.33;;
6251;SDS011;3159;52.414;9.784;2023-02-15T02:36:01;15.20;;;11.03;;
6251;SDS011;3159;52.414;9.784;2023-02-15T02:38:37;14.63;;;10.63;;
6251;SDS011;3159;52.414;9.784;2023-02-15T02:41:13;13.87;;;10.27;;
6251;SDS011;3159;52.414;9.784;2023-02-15T02:43:47;13.60;;;10.60;;
6251;SDS011;3159;52.414;9.784;2023-02-15T02:46:20;17.07;;;11.67;;
6251;SDS011;3159;52.414;9.784;2023-02-15T02:48:51;14.07;;;10.43;;
6251;SDS011;3159;52.414;9.784;2023-02-15T02:51:19;13.60;;;10.27;;
6251;SDS011;3159;52.414;9.784;2023-02-15T02:53:47;15.77;;;10.97;;
6251;SDS011;3159;52.414;9.784;2023-02-15T02:56:20;13.17;;;9.80;;
6251;SDS011;3159;52.414;9.784;2023-02-15T02:58:51;13.70;;;9.80;;
6251;SDS011;3159;52.414;9.784;2023-02-15T03:01:23;14.77;;;10.27;;
6251;SDS011;3159;52.414;9.784;2023-02-15T03:03:55;14.00;;;10.70;;
6251;SDS011;3159;52.414;9.784;2023-02-15T03:06:28;15.77;;;10.13;;
6251;SDS011;3159;52.414;9.784;2023-02-15T03:09:01;14.10;;;10.17;;
6251;SDS011;3159;52.414;9.784;2023-02-15T03:11:30;12.40;;;9.53;;
6251;SDS011;3159;52.414;9.784;2023-02-15T03:13:57;13.53;;;9.30;;
6251;SDS011;3159;52.414;9.784;2023-02-15T03:16:24;13.90;;;10.20;;
6251;SDS011;3159;52.414;9.784;2023-02-15T03:18:55;15.37;;;10.07;;
6251;SDS011;3159;52.414;9.784;2023-02-15T03:21:28;15.67;;;10.00;;
6251;SDS011;3159;52.414;9.784;2023-02-15T03:23:59;14.13;;;10.10;;
6251;SDS011;3159;52.414;9.784;2023-02-15T03:26:30;15.03;;;9.97;;
6251;SDS011;3159;52.414;9.784;2023-02-15T03:28:58;14.53;;;10.33;;
6251;SDS011;3159;52.414;9.784;2023-02-15T03:31:28;14.80;;;10.30;;
6251;SDS011;3159;52.414;9.784;2023-02-15T03:34:00;12.93;;;9.43;;
6251;SDS011;3159;52.414;9.784;2023-02-15T03:36:31;13.87;;;9.90;;
6251;SDS011;3159;52.414;9.784;2023-02-15T03:39:05;13.97;;;10.40;;
6251;SDS011;3159;52.414;9.784;2023-02-15T03:41:37;15.17;;;10.13;;
6251;SDS011;3159;52.414;9.784;2023-02-15T03:44:09;12.23;;;9.67;;
6251;SDS011;3159;52.414;9.784;2023-02-15T03:46:42;17.07;;;10.40;;
6251;SDS011;3159;52.414;9.784;2023-02-15T03:49:17;14.53;;;10.20;;
6251;SDS011;3159;52.414;9.784;2023-02-15T03:51:48;13.70;;;9.93;;
6251;SDS011;3159;52.414;9.784;2023-02-15T03:54:18;12.83;;;9.43;;
6251;SDS011;3159;52.414;9.784;2023-02-15T03:57:02;11.77;;;9.43;;
6251;SDS011;3159;52.414;9.784;2023-02-15T03:59:46;11.80;;;9.10;;
6251;SDS011;3159;52.414;9.784;2023-02-15T04:02:32;15.20;;;9.93;;
6251;SDS011;3159;52.414;9.784;2023-02-15T04:05:07;11.70;;;9.03;;
6251;SDS011;3159;52.414;9.784;2023-02-15T04:07:33;14.57;;;10.23;;
6251;SDS011;3159;52.414;9.784;2023-02-15T04:10:00;15.03;;;9.50;;
6251;SDS011;3159;52.414;9.784;2023-02-15T04:12:45;13.73;;;9.87;;
6251;SDS011;3159;52.414;9.784;2023-02-15T04:15:12;14.77;;;10.07;;
6251;SDS011;3159;52.414;9.784;2023-02-15T04:17:56;14.93;;;10.47;;
6251;SDS011;3159;52.414;9.784;2023-02-15T04:20:24;12.77;;;9.47;;
6251;SDS011;3159;52.414;9.784;2023-02-15T04:23:08;12.37;;;9.57;;
6251;SDS011;3159;52.414;9.784;2023-02-15T04:25:53;15.50;;;10.40;;
6251;SDS011;3159;52.414;9.784;2023-02-15T04:28:19;12.27;;;9.10;;
6251;SDS011;3159;52.414;9.784;2023-02-15T04:30:46;13.30;;;9.37;;
6251;SDS011;3159;52.414;9.784;2023-02-15T04:33:13;14.97;;;10.87;;
6251;SDS011;3159;52.414;9.784;2023-02-15T04:35:42;12.73;;;9.53;;
6251;SDS011;3159;52.414;9.784;2023-02-15T04:38:10;13.33;;;9.90;;
6251;SDS011;3159;52.414;9.784;2023-02-15T04:40:37;14.33;;;9.97;;
6251;SDS011;3159;52.414;9.784;2023-02-15T04:43:04;12.73;;;9.83;;
6251;SDS011;3159;52.414;9.784;2023-02-15T04:45:31;12.57;;;9.10;;
6251;SDS011;3159;52.414;9.784;2023-02-15T04:47:57;14.87;;;9.87;;
6251;SDS011;3159;52.414;9.784;2023-02-15T04:50:24;13.10;;;9.80;;
6251;SDS011;3159;52.414;9.784;2023-02-15T04:52:52;15.77;;;9.93;;
6251;SDS011;3159;52.414;9.784;2023-02-15T04:55:19;15.17;;;10.17;;
6251;SDS011;3159;52.414;9.784;2023-02-15T04:57:46;14.63;;;9.60;;
6251;SDS011;3159;52.414;9.784;2023-02-15T05:00:13;13.60;;;10.30;;
6251;SDS011;3159;52.414;9.784;2023-02-15T05:02:40;15.87;;;10.57;;
6251;SDS011;3159;52.414;9.784;2023-02-15T05:05:07;13.63;;;10.07;;
6251;SDS011;3159;52.414;9.784;2023-02-15T05:07:34;13.80;;;10.40;;
6251;SDS011;3159;52.414;9.784;2023-02-15T05:10:02;17.67;;;9.83;;
6251;SDS011;3159;52.414;9.784;2023-02-15T05:12:30;13.50;;;10.17;;
6251;SDS011;3159;52.414;9.784;2023-02-15T05:14:56;14.17;;;9.90;;
6251;SDS011;3159;52.414;9.784;2023-02-15T05:17:23;14.27;;;9.47;;
6251;SDS011;3159;52.414;9.784;2023-02-15T05:19:50;13.33;;;10.00;;
6251;SDS011;3159;52.414;9.784;2023-02-15T05:22:17;16.50;;;11.20;;
6251;SDS011;3159;52.414;9.784;2023-02-15T05:24:44;15.73;;;10.27;;
6251;SDS011;3159;52.414;9.784;2023-02-15T05:27:30;16.33;;;10.53;;
6251;SDS011;3159;52.414;9.784;2023-02-15T05:30:14;13.53;;;9.97;;
6251;SDS011;3159;52.414;9.784;2023-02-15T05:32:41;14.20;;;10.17;;
6251;SDS011;3159;52.414;9.784;2023-02-15T05:35:11;14.63;;;10.43;;
6251;SDS011;3159;52.414;9.784;2023-02-15T05:37:40;16.00;;;10.43;;
6251;SDS011;3159;52.414;9.784;2023-02-15T05:40:07;14.93;;;9.70;;
6251;SDS011;3159;52.414;9.784;2023-02-15T05:42:35;13.27;;;9.77;;
6251;SDS011;3159;52.414;9.784;2023-02-15T05:45:02;17.27;;;11.23;;
6251;SDS011;3159;52.414;9.784;2023-02-15T05:47:30;16.37;;;11.10;;
6251;SDS011;3159;52.414;9.784;2023-02-15T05:49:57;16.17;;;11.87;;
6251;SDS011;3159;52.414;9.784;2023-02-15T05:52:24;16.60;;;10.37;;
6251;SDS011;3159;52.414;9.784;2023-02-15T05:54:51;16.83;;;11.07;;
6251;SDS011;3159;52.414;9.784;2023-02-15T05:57:17;15.87;;;10.90;;
6251;SDS011;3159;52.414;9.784;2023-02-15T05:59:45;16.93;;;11.87;;
6251;SDS011;3159;52.414;9.784;2023-02-15T06:02:12;16.20;;;11.13;;
6251;SDS011;3159;52.414;9.784;2023-02-15T06:04:39;15.37;;;11.47;;
6251;SDS011;3159;52.414;9.784;2023-02-15T06:07:06;15.57;;;10.77;;
6251;SDS011;3159;52.414;9.784;2023-02-15T06:09:33;16.40;;;11.43;;
6251;SDS011;3159;52.414;9.784;2023-02-15T06:11:59;19.30;;;12.97;;
6251;SDS011;3159;52.414;9.784;2023-02-15T06:14:26;19.07;;;12.80;;
6251;SDS011;3159;52.414;9.784;2023-02-15T06:16:54;18.37;;;12.30;;
6251;SDS011;3159;52.414;9.784;2023-02-15T06:19:21;20.40;;;13.37;;
6251;SDS011;3159;52.414;9.784;2023-02-15T06:21:48;18.40;;;12.07;;
6251;SDS011;3159;52.414;9.784;2023-02-15T06:24:15;20.10;;;13.73;;
6251;SDS011;3159;52.414;9.784;2023-02-15T06:26:42;19.03;;;13.57;;
6251;SDS011;3159;52.414;9.784;2023-02-15T06:29:08;21.13;;;13.40;;
6251;SDS011;3159;52.414;9.784;2023-02-15T06:31:35;19.20;;;13.40;;
6251;SDS011;3159;52.414;9.784;2023-02-15T06:34:03;19.37;;;13.77;;
6251;SDS011;3159;52.414;9.784;2023-02-15T06:36:30;19.47;;;13.50;;
6251;SDS011;3159;52.414;9.784;2023-02-15T06:38:57;20.73;;;13.90;;
6251;SDS011;3159;52.414;9.784;2023-02-15T06:41:24;21.10;;;14.77;;
6251;SDS011;3159;52.414;9.784;2023-02-15T06:43:51;19.83;;;14.87;;
6251;SDS011;3159;52.414;9.784;2023-02-15T06:46:18;21.03;;;15.07;;
6251;SDS011;3159;52.414;9.784;2023-02-15T06:48:45;20.07;;;14.20;;
6251;SDS011;3159;52.414;9.784;2023-02-15T06:51:13;20.70;;;14.30;;
6251;SDS011;3159;52.414;9.784;2023-02-15T06:53:39;20.37;;;14.43;;
6251;SDS011;3159;52.414;9.784;2023-02-15T06:56:07;20.33;;;14.13;;
6251;SDS011;3159;52.414;9.784;2023-02-15T06:58:35;21.50;;;14.20;;
6251;SDS011;3159;52.414;9.784;2023-02-15T07:01:02;21.93;;;13.33;;
6251;SDS011;3159;52.414;9.784;2023-02-15T07:03:29;19.90;;;13.60;;
6251;SDS011;3159;52.414;9.784;2023-02-15T07:05:56;19.90;;;13.63;;
6251;SDS011;3159;52.414;9.784;2023-02-15T07:08:26;20.30;;;13.37;;
6251;SDS011;3159;52.414;9.784;2023-02-15T07:10:53;20.13;;;13.30;;
6251;SDS011;3159;52.414;9.784;2023-02-15T07:13:41;19.93;;;13.23;;
6251;SDS011;3159;52.414;9.784;2023-02-15T07:16:07;18.87;;;12.73;;
6251;SDS011;3159;52.414;9.784;2023-02-15T07:18:34;19.77;;;13.00;;
6251;SDS011;3159;52.414;9.784;2023-02-15T07:21:01;20.60;;;12.77;;
6251;SDS011;3159;52.414;9.784;2023-02-15T07:23:30;21.60;;;13.73;;
6251;SDS011;3159;52.414;9.784;2023-02-15T07:25:56;31.10;;;17.77;;
6251;SDS011;3159;52.414;9.784;2023-02-15T07:28:24;33.83;;;17.87;;
6251;SDS011;3159;52.414;9.784;2023-02-15T07:30:50;29.37;;;17.80;;
6251;SDS011;3159;52.414;9.784;2023-02-15T07:33:17;26.37;;;16.43;;
6251;SDS011;3159;52.414;9.784;2023-02-15T07:35:52;19.87;;;13.33;;
6251;SDS011;3159;52.414;9.784;2023-02-15T07:38:21;20.50;;;12.73;;
6251;SDS011;3159;52.414;9.784;2023-02-15T07:40:49;20.07;;;13.43;;
6251;SDS011;3159;52.414;9.784;2023-02-15T07:43:16;18.07;;;12.23;;
6251;SDS011;3159;52.414;9.784;2023-02-15T07:45:43;18.23;;;12.43;;
6251;SDS011;3159;52.414;9.784;2023-02-15T07:48:10;19.57;;;13.07;;
6251;SDS011;3159;52.414;9.784;2023-02-15T07:50:37;19.57;;;12.53;;
6251;SDS011;3159;52.414;9.784;2023-02-15T07:53:03;21.60;;;13.13;;
6251;SDS011;3159;52.414;9.784;2023-02-15T07:55:30;16.93;;;12.47;;
6251;SDS011;3159;52.414;9.784;2023-02-15T07:57:58;18.87;;;12.60;;
6251;SDS011;3159;52.414;9.784;2023-02-15T08:00:25;19.63;;;12.90;;
6251;SDS011;3159;52.414;9.784;2023-02-15T08:02:55;19.83;;;14.00;;
6251;SDS011;3159;52.414;9.784;2023-02-15T08:05:40;19.60;;;13.30;;
6251;SDS011;3159;52.414;9.784;2023-02-15T08:08:08;18.37;;;13.10;;
6251;SDS011;3159;52.414;9.784;2023-02-15T08:10:56;21.40;;;13.83;;
6251;SDS011;3159;52.414;9.784;2023-02-15T08:13:43;21.60;;;13.83;;
6251;SDS011;3159;52.414;9.784;2023-02-15T08:16:20;22.50;;;14.47;;
6251;SDS011;3159;52.414;9.784;2023-02-15T08:18:48;19.97;;;13.70;;
6251;SDS011;3159;52.414;9.784;2023-02-15T08:21:15;18.70;;;13.63;;
6251;SDS011;3159;52.414;9.784;2023-02-15T08:23:41;19.83;;;14.10;;
6251;SDS011;3159;52.414;9.784;2023-02-15T08:26:08;22.07;;;13.87;;
6251;SDS011;3159;52.414;9.784;2023-02-15T08:28:35;22.43;;;14.30;;
6251;SDS011;3159;52.414;9.784;2023-02-15T08:31:07;22.07;;;14.77;;
6251;SDS011;3159;52.414;9.784;2023-02-15T08:33:35;19.87;;;14.13;;
6251;SDS011;3159;52.414;9.784;2023-02-15T08:36:04;20.07;;;13.23;;
6251;SDS011;3159;52.414;9.784;2023-02-15T08:38:33;17.83;;;12.17;;
6251;SDS011;3159;52.414;9.784;2023-02-15T08:41:08;19.70;;;12.67;;
6251;SDS011;3159;52.414;9.784;2023-02-15T08:43:35;16.63;;;13.20;;
6251;SDS011;3159;52.414;9.784;2023-02-15T08:46:02;18.20;;;12.53;;
6251;SDS011;3159;52.414;9.784;2023-02-15T08:48:31;17.93;;;12.63;;
6251;SDS011;3159;52.414;9.784;2023-02-15T08:50:57;16.60;;;12.40;;
6251;SDS011;3159;52.414;9.784;2023-02-15T08:53:24;19.27;;;13.10;;
6251;SDS011;3159;52.414;9.784;2023-02-15T08:55:54;19.23;;;13.90;;
6251;SDS011;3159;52.414;9.784;2023-02-15T08:58:22;16.40;;;12.83;;
6251;SDS011;3159;52.414;9.784;2023-02-15T09:00:49;21.10;;;13.77;;
6251;SDS011;3159;52.414;9.784;2023-02-15T09:03:16;18.53;;;13.30;;
6251;SDS011;3159;52.414;9.784;2023-02-15T09:05:44;17.03;;;12.90;;
6251;SDS011;3159;52.414;9.784;2023-02-15T09:08:11;19.33;;;14.10;;
6251;SDS011;3159;52.414;9.784;2023-02-15T09:10:38;17.83;;;13.13;;
6251;SDS011;3159;52.414;9.784;2023-02-15T09:13:05;18.77;;;12.50;;
6251;SDS011;3159;52.414;9.784;2023-02-15T09:15:31;19.27;;;13.37;;
6251;SDS011;3159;52.414;9.784;2023-02-15T09:17:58;20.07;;;13.50;;
6251;SDS011;3159;52.414;9.784;2023-02-15T09:20:30;18.57;;;12.70;;
6251;SDS011;3159;52.414;9.784;2023-02-15T09:23:02;17.10;;;13.47;;
6251;SDS011;3159;52.414;9.784;2023-02-15T09:25:29;18.63;;;12.43;;
6251;SDS011;3159;52.414;9.784;2023-02-15T09:27:56;19.37;;;13.13;;
6251;SDS011;3159;52.414;9.784;2023-02-15T09:30:23;17.80;;;12.77;;
6251;SDS011;3159;52.414;9.784;2023-02-15T09:32:49;16.63;;;11.93;;
6251;SDS011;3159;52.414;9.784;2023-02-15T09:35:16;18.03;;;12.90;;
6251;SDS011;3159;52.414;9.784;2023-02-15T09:37:43;16.53;;;12.93;;
6251;SDS011;3159;52.414;9.784;2023-02-15T09:40:12;17.83;;;12.63;;
6251;SDS011;3159;52.414;9.784;2023-02-15T09:42:55;18.80;;;13.13;;
6251;SDS011;3159;52.414;9.784;2023-02-15T09:45:32;16.90;;;12.57;;
6251;SDS011;3159;52.414;9.784;2023-02-15T09:48:21;16.13;;;12.40;;
6251;SDS011;3159;52.414;9.784;2023-02-15T09:50:58;16.00;;;12.43;;
6251;SDS011;3159;52.414;9.784;2023-02-15T09:54:09;16.20;;;12.23;;
6251;SDS011;3159;52.414;9.784;2023-02-15T09:56:51;16.83;;;12.57;;
6251;SDS011;3159;52.414;9.784;2023-02-15T09:59:26;16.23;;;12.00;;
6251;SDS011;3159;52.414;9.784;2023-02-15T10:02:02;17.20;;;12.07;;
6251;SDS011;3159;52.414;9.784;2023-02-15T10:04:46;16.80;;;12.73;;
6251;SDS011;3159;52.414;9.784;2023-02-15T10:07:26;14.90;;;11.40;;
6251;SDS011;3159;52.414;9.784;2023-02-15T10:10:09;15.20;;;11.53;;
6251;SDS011;3159;52.414;9.784;2023-02-15T10:12:52;18.60;;;11.50;;
6251;SDS011;3159;52.414;9.784;2023-02-15T10:15:34;14.30;;;10.77;;
6251;SDS011;3159;52.414;9.784;2023-02-15T10:18:23;15.33;;;10.93;;
6251;SDS011;3159;52.414;9.784;2023-02-15T10:20:59;13.27;;;10.97;;
6251;SDS011;3159;52.414;9.784;2023-02-15T10:23:47;15.03;;;11.47;;
6251;SDS011;3159;52.414;9.784;2023-02-15T10:26:41;14.80;;;11.43;;
6251;SDS011;3159;52.414;9.784;2023-02-15T10:29:14;14.53;;;11.50;;
6251;SDS011;3159;52.414;9.784;2023-02-15T10:31:48;13.90;;;11.30;;
6251;SDS011;3159;52.414;9.784;2023-02-15T10:34:18;17.80;;;12.57;;
6251;SDS011;3159;52.414;9.784;2023-02-15T10:36:51;14.83;;;11.80;;
6251;SDS011;3159;52.414;9.784;2023-02-15T10:39:31;16.80;;;11.87;;
6251;SDS011;3159;52.414;9.784;2023-02-15T10:42:09;16.17;;;11.37;;
6251;SDS011;3159;52.414;9.784;2023-02-15T10:44:49;15.57;;;10.87;;
6251;SDS011;3159;52.414;9.784;2023-02-15T10:47:34;13.97;;;11.47;;
6251;SDS011;3159;52.414;9.784;2023-02-15T10:50:24;18.87;;;11.90;;
6251;SDS011;3159;52.414;9.784;2023-02-15T10:53:05;14.87;;;11.63;;
6251;SDS011;3159;52.414;9.784;2023-02-15T10:55:44;16.33;;;11.47;;
6251;SDS011;3159;52.414;9.784;2023-02-15T10:58:17;14.70;;;11.40;;
6251;SDS011;3159;52.414;9.784;2023-02-15T11:00:54;14.87;;;11.37;;
6251;SDS011;3159;52.414;9.784;2023-02-15T11:06:19;15.80;;;11.87;;
6251;SDS011;3159;52.414;9.784;2023-02-15T11:08:48;14.43;;;11.13;;
6251;SDS011;3159;52.414;9.784;2023-02-15T11:11:19;16.87;;;12.00;;
6251;SDS011;3159;52.414;9.784;2023-02-15T11:13:50;16.27;;;11.53;;
6251;SDS011;3159;52.414;9.784;2023-02-15T11:16:22;18.87;;;11.60;;
6251;SDS011;3159;52.414;9.784;2023-02-15T11:18:54;16.70;;;11.73;;
6251;SDS011;3159;52.414;9.784;2023-02-15T11:21:26;16.30;;;11.77;;
6251;SDS011;3159;52.414;9.784;2023-02-15T11:23:57;15.97;;;12.10;;
6251;SDS011;3159;52.414;9.784;2023-02-15T11:26:26;16.67;;;12.77;;
6251;SDS011;3159;52.414;9.784;2023-02-15T11:28:59;16.63;;;12.60;;
6251;SDS011;3159;52.414;9.784;2023-02-15T11:31:35;15.27;;;11.93;;
6251;SDS011;3159;52.414;9.784;2023-02-15T11:34:11;17.63;;;12.37;;
6251;SDS011;3159;52.414;9.784;2023-02-15T11:36:41;14.10;;;12.10;;
6251;SDS011;3159;52.414;9.784;2023-02-15T11:39:12;16.47;;;11.93;;
6251;SDS011;3159;52.414;9.784;2023-02-15T11:41:43;17.77;;;11.93;;
6251;SDS011;3159;52.414;9.784;2023-02-15T11:44:17;17.63;;;12.60;;
6251;SDS011;3159;52.414;9.784;2023-02-15T11:46:50;16.90;;;12.83;;
6251;SDS011;3159;52.414;9.784;2023-02-15T11:49:21;19.80;;;11.77;;
6251;SDS011;3159;52.414;9.784;2023-02-15T11:51:53;15.57;;;12.07;;
6251;SDS011;3159;52.414;9.784;2023-02-15T11:54:23;15.03;;;11.90;;
6251;SDS011;3159;52.414;9.784;2023-02-15T11:56:54;17.93;;;12.97;;
6251;SDS011;3159;52.414;9.784;2023-02-15T11:59:24;17.17;;;11.60;;
6251;SDS011;3159;52.414;9.784;2023-02-15T12:01:57;17.63;;;11.70;;
6251;SDS011;3159;52.414;9.784;2023-02-15T12:04:25;15.87;;;12.13;;
6251;SDS011;3159;52.414;9.784;2023-02-15T12:06:57;17.63;;;12.23;;
6251;SDS011;3159;52.414;9.784;2023-02-15T12:09:30;16.27;;;11.50;;
6251;SDS011;3159;52.414;9.784;2023-02-15T12:12:20;15.73;;;11.67;;
6251;SDS011;3159;52.414;9.784;2023-02-15T12:14:48;18.20;;;13.47;;
6251;SDS011;3159;52.414;9.784;2023-02-15T12:17:17;21.90;;;12.73;;
6251;SDS011;3159;52.414;9.784;2023-02-15T12:19:47;17.93;;;12.43;;
6251;SDS011;3159;52.414;9.784;2023-02-15T12:22:18;17.77;;;12.40;;
6251;SDS011;3159;52.414;9.784;2023-02-15T12:24:49;17.37;;;12.97;;
6251;SDS011;3159;52.414;9.784;2023-02-15T12:27:19;18.30;;;12.17;;
6251;SDS011;3159;52.414;9.784;2023-02-15T12:29:48;16.77;;;12.03;;
6251;SDS011;3159;52.414;9.784;2023-02-15T12:32:19;15.43;;;12.60;;
6251;SDS011;3159;52.414;9.784;2023-02-15T12:34:50;15.93;;;11.93;;
6251;SDS011;3159;52.414;9.784;2023-02-15T12:37:19;19.17;;;12.63;;
6251;SDS011;3159;52.414;9.784;2023-02-15T12:39:51;16.70;;;11.73;;
6251;SDS011;3159;52.414;9.784;2023-02-15T12:42:20;18.17;;;12.53;;
6251;SDS011;3159;52.414;9.784;2023-02-15T12:44:57;15.57;;;11.60;;
6251;SDS011;3159;52.414;9.784;2023-02-15T12:47:27;14.50;;;11.30;;
6251;SDS011;3159;52.414;9.784;2023-02-15T12:50:07;16.63;;;11.27;;
6251;SDS011;3159;52.414;9.784;2023-02-15T12:52:42;15.57;;;11.27;;
6251;SDS011;3159;52.414;9.784;2023-02-15T12:55:10;14.90;;;11.53;;
6251;SDS011;3159;52.414;9.784;2023-02-15T12:57:44;18.57;;;12.77;;
6251;SDS011;3159;52.414;9.784;2023-02-15T13:00:25;17.97;;;12.37;;
6251;SDS011;3159;52.414;9.784;2023-02-15T13:02:55;18.07;;;13.07;;
6251;SDS011;3159;52.414;9.784;2023-02-15T13:05:25;17.70;;;12.10;;
6251;SDS011;3159;52.414;9.784;2023-02-15T13:07:57;19.73;;;12.70;;
6251;SDS011;3159;52.414;9.784;2023-02-15T13:10:28;16.77;;;13.00;;
6251;SDS011;3159;52.414;9.784;2023-02-15T13:12:57;17.73;;;12.77;;
6251;SDS011;3159;52.414;9.784;2023-02-15T13:15:28;16.70;;;12.47;;
6251;SDS011;3159;52.414;9.784;2023-02-15T13:18:01;18.10;;;12.87;;
6251;SDS011;3159;52.414;9.784;2023-02-15T13:20:30;18.70;;;13.03;;
6251;SDS011;3159;52.414;9.784;2023-02-15T13:23:02;16.90;;;12.13;;
6251;SDS011;3159;52.414;9.784;2023-02-15T13:25:32;19.57;;;13.63;;
6251;SDS011;3159;52.414;9.784;2023-02-15T13:28:06;17.47;;;12.93;;
6251;SDS011;3159;52.414;9.784;2023-02-15T13:30:38;19.00;;;12.53;;
6251;SDS011;3159;52.414;9.784;2023-02-15T13:33:12;19.87;;;12.57;;
6251;SDS011;3159;52.414;9.784;2023-02-15T13:35:44;19.27;;;12.57;;
6251;SDS011;3159;52.414;9.784;2023-02-15T13:38:26;19.03;;;12.63;;
6251;SDS011;3159;52.414;9.784;2023-02-15T13:41:12;16.47;;;12.27;;
6251;SDS011;3159;52.414;9.784;2023-02-15T13:43:45;21.57;;;13.37;;
6251;SDS011;3159;52.414;9.784;2023-02-15T13:46:24;17.50;;;12.27;;
6251;SDS011;3159;52.414;9.784;2023-02-15T13:49:13;18.97;;;13.10;;
6251;SDS011;3159;52.414;9.784;2023-02-15T13:51:49;18.20;;;12.80;;
6251;SDS011;3159;52.414;9.784;2023-02-15T13:54:29;19.40;;;12.47;;
6251;SDS011;3159;52.414;9.784;2023-02-15T13:57:11;20.40;;;13.50;;
6251;SDS011;3159;52.414;9.784;2023-02-15T14:00:01;17.73;;;13.27;;
6251;SDS011;3159;52.414;9.784;2023-02-15T14:02:59;17.97;;;13.07;;
6251;SDS011;3159;52.414;9.784;2023-02-15T14:05:50;17.50;;;12.40;;
6251;SDS011;3159;52.414;9.784;2023-02-15T14:08:31;19.20;;;13.07;;
6251;SDS011;3159;52.414;9.784;2023-02-15T14:11:11;19.67;;;12.77;;
6251;SDS011;3159;52.414;9.784;2023-02-15T14:13:50;18.63;;;13.47;;
6251;SDS011;3159;52.414;9.784;2023-02-15T14:16:47;17.63;;;12.57;;
6251;SDS011;3159;52.414;9.784;2023-02-15T14:19:21;19.10;;;13.13;;
6251;SDS011;3159;52.414;9.784;2023-02-15T14:21:56;19.10;;;14.30;;
6251;SDS011;3159;52.414;9.784;2023-02-15T14:24:30;20.03;;;13.33;;
6251;SDS011;3159;52.414;9.784;2023-02-15T14:27:04;20.37;;;13.07;;
6251;SDS011;3159;52.414;9.784;2023-02-15T14:29:46;15.80;;;12.13;;
6251;SDS011;3159;52.414;9.784;2023-02-15T14:32:18;18.60;;;13.30;;
6251;SDS011;3159;52.414;9.784;2023-02-15T14:34:52;15.07;;;11.73;;
6251;SDS011;3159;52.414;9.784;2023-02-15T14:37:24;17.30;;;12.50;;
6251;SDS011;3159;52.414;9.784;2023-02-15T14:40:00;20.60;;;12.70;;
6251;SDS011;3159;52.414;9.784;2023-02-15T14:42:51;18.67;;;12.63;;
6251;SDS011;3159;52.414;9.784;2023-02-15T14:45:26;20.90;;;13.33;;
6251;SDS011;3159;52.414;9.784;2023-02-15T14:48:04;16.53;;;13.17;;
6251;SDS011;3159;52.414;9.784;2023-02-15T14:50:41;19.63;;;12.63;;
6251;SDS011;3159;52.414;9.784;2023-02-15T14:53:20;18.93;;;13.07;;
6251;SDS011;3159;52.414;9.784;2023-02-15T14:59:11;17.50;;;12.53;;
6251;SDS011;3159;52.414;9.784;2023-02-15T15:01:41;16.73;;;12.60;;
6251;SDS011;3159;52.414;9.784;2023-02-15T15:04:21;18.17;;;12.77;;
6251;SDS011;3159;52.414;9.784;2023-02-15T15:06:57;17.93;;;12.53;;
6251;SDS011;3159;52.414;9.784;2023-02-15T15:09:35;16.40;;;12.97;;
6251;SDS011;3159;52.414;9.784;2023-02-15T15:12:12;18.73;;;13.07;;
6251;SDS011;3159;52.414;9.784;2023-02-15T15:14:41;18.77;;;12.33;;
6251;SDS011;3159;52.414;9.784;2023-02-15T15:17:11;16.93;;;12.77;;
6251;SDS011;3159;52.414;9.784;2023-02-15T15:22:38;24.37;;;14.87;;
6251;SDS011;3159;52.414;9.784;2023-02-15T15:25:11;17.57;;;13.00;;
6251;SDS011;3159;52.414;9.784;2023-02-15T15:27:53;17.67;;;13.37;;
6251;SDS011;3159;52.414;9.784;2023-02-15T15:33:41;18.00;;;12.80;;